x

Lake Winnipeg S. Basin (45140) Wave Buoy

10:00pm - Fri 22nd Aug 2014 All times are UTC.

  • Sig Wave height 2.3ft
  • Peak Period 4s
  • Wind
    18mph, 22mph gusts
  • Sea Temp 71°f
  • Air Temp 64°f
  • Sea Pressure 1018.6mb

More Historic Weather Station data

Upgrade to MSW Pro to gain access to the past 30 days of data for over 8000 Wavebouys and Weather Stations around the globe.

Join Pro

Comparision Forecast

View Surf forecast
   
Fri 08/22 10:00pm 2.5ft 4s 18 22 mph 1018.6mb 71f 64f
9:00pm 2.5ft 4s 18 22 mph 1018mb 71f 63f
8:00pm  -   -  18
mph
1017.5mb - 64f
7:00pm 2.5ft 4s 18 22 mph 1017.6mb 71f 64f
6:00pm 2.5ft 4s 20 25 mph 1017.1mb 71f 63f
5:00pm 2.5ft 4s 20 25 mph 1016.8mb 71f 64f
4:00pm 2.5ft 4s 20 25 mph 1016.1mb 71f 64f
3:00pm 2.5ft 4s 18 22 mph 1016.1mb 71f 64f
1:00pm  -   -  20
mph
1015.3mb 71f 65f
12:00pm 2ft 3s 18 22 mph 1015mb 71f 65f
11:00am 2ft 3s 18 22 mph 1014.6mb 71f 65f
10:00am 2ft 3s 18 20 mph 1014.1mb 71f 65f
7:00am 2ft 4s 18 20 mph 1013.2mb 72f 67f
5:00am 1ft 2s 22 27 mph 1012.7mb 72f 68f
4:00am 0.7ft 2s 4 7 mph 1012.7mb 72f 69f
3:00am 0.7ft 2s 4 7 mph 1012.4mb 72f 69f
2:00am 0.7ft 2s 4 9 mph 1012.2mb 72f 70f
1:00am 0.7ft 2s 7
mph
1011.6mb 72f 71f
12:00am 0.7ft 3s 7 9 mph 1011.1mb 72f 71f
Thu 08/21 11:00pm 1ft 3s 9 11 mph 1011mb 72f 71f
10:00pm 0.7ft 5s 13
mph
1010.6mb 72f 71f
9:00pm 0.7ft 2s 4 7 mph 1010.7mb 72f 69f
8:00pm 0.7ft 2s 2 4 mph 1010.8mb 71f 68f
7:00pm 0.7ft 3s 4 9 mph 1010.3mb 72f 69f
6:00pm 1ft 3s 4
mph
1010.2mb 72f 69f
5:00pm 1ft 3s 4
mph
1010.2mb 71f 69f
4:00pm 1.3ft 3s 7 9 mph 1010.2mb 71f 69f
3:00pm 1.3ft 3s 9 13 mph 1009.8mb 71f 69f
2:00pm 1.6ft 3s 13 16 mph 1010.1mb 71f 69f
1:00pm 1.3ft 2s 13 16 mph 1009.7mb 72f 69f
12:00pm 1.3ft 3s 11 13 mph 1009.4mb 72f 69f
11:00am 1.6ft 3s 9
mph
1009.3mb 72f 69f
10:00am 1.6ft 4s 13 16 mph 1008.8mb 72f 71f
9:00am 2ft 4s 13 16 mph 1008.5mb 72f 71f
8:00am 2ft 4s 16 20 mph 1008mb 72f 72f
7:00am 2ft 4s 18 22 mph 1008.5mb 72f 72f
6:00am 2ft 3s 18 20 mph 1008.8mb 72f 73f
5:00am 1.6ft 2s 16 18 mph 1008.8mb 72f 73f
4:00am 1.6ft 3s 13 18 mph 1009.2mb 72f 73f
3:00am 1.3ft 3s 16 20 mph 1008.5mb 73f 74f
2:00am 1ft 2s 16 18 mph 1008.1mb 73f 74f
1:00am 1ft 2s 13 16 mph 1008.2mb 73f 76f
12:00am 1ft 2s 11
mph
1007.7mb 73f 76f
Wed 08/20 11:00pm 1ft 2s 9 11 mph 1008.4mb 74f 77f
10:00pm 1ft 2s 7 9 mph 1008.4mb 74f 76f
9:00pm 1ft 3s 7 9 mph 1008.5mb 74f 76f
8:00pm 1ft 3s 4 7 mph 1008.5mb 73f 75f
7:00pm 1.3ft 3s 7 9 mph 1008.3mb 72f 75f
6:00pm 1.3ft 3s 7 9 mph 1008.7mb 72f 73f
5:00pm 1.3ft 3s 13 18 mph 1008mb 72f 72f
4:00pm 1.3ft 4s 13 18 mph 1008.1mb 72f 71f
3:00pm 1.6ft 4s 11 13 mph 1008.8mb 71f 69f
1:00pm 1.6ft 3s 13 16 mph 1009.2mb 71f 68f
12:00pm 1.6ft 3s 13 18 mph 1008.8mb 72f 68f
11:00am 1.6ft 3s 13 16 mph 1008.3mb 72f 68f
10:00am 1.6ft 3s 13 16 mph 1008.4mb 72f 68f
9:00am 1.3ft 2s 13 16 mph 1008.1mb 72f 69f
8:00am 1.3ft 3s 13 16 mph 1007.9mb 72f 69f
7:00am 1.3ft 2s 13 16 mph 1008mb 72f 69f
6:00am 1.3ft 2s 11 16 mph 1008mb 73f 71f
5:00am 1.3ft 3s 13 16 mph 1008.1mb 73f 70f
4:00am 1.3ft 2s 16 18 mph 1007.9mb 74f 70f
3:00am 0.7ft 2s 16 18 mph 1007.3mb 75f 73f
2:00am 0.7ft 2s 7
mph
1007.4mb 76f 75f
1:00am 0.7ft 3s 4
mph
1007.2mb 76f 75f
12:00am 0.7ft 5s 2 4 mph 1006.8mb 76f 75f
Tue 08/19 11:00pm 0.7ft 6s 2 4 mph 1007mb 76f 75f
10:00pm 0.7ft 7s 4
mph
1007.1mb 76f 74f
9:00pm 0.7ft 7s 4
mph
1007.3mb 75f 73f
8:00pm 0.7ft 5s 4 7 mph 1007.5mb 75f 72f
7:00pm 0.7ft 5s 7
mph
1007.7mb 75f 69f
6:00pm 0.7ft 7s 4
mph
1007.7mb 74f 69f
5:00pm 0.7ft 7s 4 7 mph 1007.8mb 73f 68f
4:00pm 0.3ft 4s 4 7 mph 1007.9mb 73f 67f
3:00pm 0.7ft 5s 7 9 mph 1007.4mb 72f 67f
2:00pm 0.7ft 2s 4 7 mph 1007.3mb 72f 64f
1:00pm 0.7ft 2s 4
mph
1007mb 72f 65f
12:00pm 0.7ft 2s 7 9 mph 1007mb 72f 64f
11:00am 0.7ft 2s 4 7 mph 1006.5mb 72f 66f
10:00am 0.7ft 2s 9
mph
1006mb 72f 67f
9:00am 0.7ft 2s 7 9 mph 1006mb 72f 68f
8:00am 0.7ft 2s 7 9 mph 1005.6mb 72f 69f
7:00am 0.7ft 2s 4
mph
1005.6mb 73f 69f
6:00am 0.7ft 2s 7 9 mph 1005.6mb 73f 69f
5:00am 0.7ft 2s 4 7 mph 1005.7mb 73f 71f
4:00am 0.7ft 2s 4
mph
1005.8mb 73f 71f
3:00am 0.7ft 2s 2
mph
1005.7mb 73f 72f
2:00am 0.7ft 2s 4 7 mph 1005.5mb 73f 72f
1:00am 0.7ft 3s 4
mph
1005.3mb 74f 72f
12:00am 0.7ft 4s 4 7 mph 1005.1mb 74f 72f